Terminal Aerodrome Forecast
Issued by NWS Hastings, NE

Home | Current Version | Previous Version | Text Only | Print | Product List | Glossary On
Versions: 1 2 3 4 5 6 7 8 9 10 11 12 13 14 15 16 17 18 19 20 21 22 23 24 25 26 27 28
000
FTUS43 KGID 101742
TAFGRI
TAF
KGRI 101742Z 1018/1118 16014G20KT P6SM SCT015 OVC035
     FM110000 16009KT P6SM SCT035 OVC050
     FM111300 30008KT P6SM OVC050
     FM111600 33016G22KT P6SM SCT015 OVC050=

USA.gov is the U.S. government's official web portal to all federal, state and local government web resources and services.